sensor_id;sensor_type;location;lat;lon;timestamp;P1;durP1;ratioP1;P2;durP2;ratioP2
32094;SDS011;18608;53.688;10.748;2023-03-01T00:01:34;12.17;;;6.47;;
32094;SDS011;18608;53.688;10.748;2023-03-01T00:03:59;4.87;;;4.47;;
32094;SDS011;18608;53.688;10.748;2023-03-01T00:06:25;6.20;;;4.80;;
32094;SDS011;18608;53.688;10.748;2023-03-01T00:08:51;5.17;;;4.77;;
32094;SDS011;18608;53.688;10.748;2023-03-01T00:11:21;7.63;;;4.73;;
32094;SDS011;18608;53.688;10.748;2023-03-01T00:13:49;4.70;;;3.70;;
32094;SDS011;18608;53.688;10.748;2023-03-01T00:16:18;4.97;;;3.87;;
32094;SDS011;18608;53.688;10.748;2023-03-01T00:18:53;4.53;;;3.87;;
32094;SDS011;18608;53.688;10.748;2023-03-01T00:21:22;4.57;;;3.80;;
32094;SDS011;18608;53.688;10.748;2023-03-01T00:23:48;6.03;;;3.93;;
32094;SDS011;18608;53.688;10.748;2023-03-01T00:26:14;3.73;;;3.43;;
32094;SDS011;18608;53.688;10.748;2023-03-01T00:28:42;5.23;;;3.70;;
32094;SDS011;18608;53.688;10.748;2023-03-01T00:31:10;3.83;;;3.53;;
32094;SDS011;18608;53.688;10.748;2023-03-01T00:33:40;3.97;;;3.57;;
32094;SDS011;18608;53.688;10.748;2023-03-01T00:36:06;6.73;;;4.20;;
32094;SDS011;18608;53.688;10.748;2023-03-01T00:38:36;4.07;;;3.53;;
32094;SDS011;18608;53.688;10.748;2023-03-01T00:41:04;3.73;;;3.43;;
32094;SDS011;18608;53.688;10.748;2023-03-01T00:43:30;4.27;;;3.87;;
32094;SDS011;18608;53.688;10.748;2023-03-01T00:46:01;4.17;;;3.80;;
32094;SDS011;18608;53.688;10.748;2023-03-01T00:48:28;4.23;;;3.93;;
32094;SDS011;18608;53.688;10.748;2023-03-01T00:50:53;4.83;;;3.70;;
32094;SDS011;18608;53.688;10.748;2023-03-01T00:53:19;7.53;;;3.90;;
32094;SDS011;18608;53.688;10.748;2023-03-01T00:55:44;4.20;;;3.83;;
32094;SDS011;18608;53.688;10.748;2023-03-01T00:58:10;3.70;;;3.40;;
32094;SDS011;18608;53.688;10.748;2023-03-01T01:00:35;4.57;;;4.17;;
32094;SDS011;18608;53.688;10.748;2023-03-01T01:03:01;4.83;;;4.33;;
32094;SDS011;18608;53.688;10.748;2023-03-01T01:05:27;3.77;;;3.43;;
32094;SDS011;18608;53.688;10.748;2023-03-01T01:07:52;6.37;;;4.07;;
32094;SDS011;18608;53.688;10.748;2023-03-01T01:10:18;4.70;;;3.00;;
32094;SDS011;18608;53.688;10.748;2023-03-01T01:12:45;5.50;;;3.90;;
32094;SDS011;18608;53.688;10.748;2023-03-01T01:15:11;5.90;;;4.60;;
32094;SDS011;18608;53.688;10.748;2023-03-01T01:17:39;5.23;;;4.73;;
32094;SDS011;18608;53.688;10.748;2023-03-01T01:20:05;6.00;;;4.50;;
32094;SDS011;18608;53.688;10.748;2023-03-01T01:22:32;5.23;;;3.60;;
32094;SDS011;18608;53.688;10.748;2023-03-01T01:24:58;4.80;;;3.90;;
32094;SDS011;18608;53.688;10.748;2023-03-01T01:27:23;5.20;;;4.30;;
32094;SDS011;18608;53.688;10.748;2023-03-01T01:29:49;7.83;;;4.60;;
32094;SDS011;18608;53.688;10.748;2023-03-01T01:32:14;5.53;;;4.10;;
32094;SDS011;18608;53.688;10.748;2023-03-01T01:34:40;5.27;;;4.43;;
32094;SDS011;18608;53.688;10.748;2023-03-01T01:37:05;4.33;;;3.93;;
32094;SDS011;18608;53.688;10.748;2023-03-01T01:39:33;7.20;;;4.60;;
32094;SDS011;18608;53.688;10.748;2023-03-01T01:41:59;4.53;;;4.00;;
32094;SDS011;18608;53.688;10.748;2023-03-01T01:44:26;7.40;;;4.20;;
32094;SDS011;18608;53.688;10.748;2023-03-01T01:47:03;5.77;;;4.07;;
32094;SDS011;18608;53.688;10.748;2023-03-01T01:49:44;4.70;;;3.83;;
32094;SDS011;18608;53.688;10.748;2023-03-01T01:52:14;3.47;;;3.13;;
32094;SDS011;18608;53.688;10.748;2023-03-01T01:57:28;4.03;;;3.60;;
32094;SDS011;18608;53.688;10.748;2023-03-01T01:59:59;4.77;;;3.80;;
32094;SDS011;18608;53.688;10.748;2023-03-01T02:02:30;3.90;;;3.27;;
32094;SDS011;18608;53.688;10.748;2023-03-01T02:05:03;3.63;;;2.80;;
32094;SDS011;18608;53.688;10.748;2023-03-01T02:07:50;4.73;;;3.70;;
32094;SDS011;18608;53.688;10.748;2023-03-01T02:10:16;4.10;;;3.70;;
32094;SDS011;18608;53.688;10.748;2023-03-01T02:12:42;8.40;;;4.60;;
32094;SDS011;18608;53.688;10.748;2023-03-01T02:15:08;11.53;;;5.10;;
32094;SDS011;18608;53.688;10.748;2023-03-01T02:17:34;4.43;;;3.43;;
32094;SDS011;18608;53.688;10.748;2023-03-01T02:20:07;5.13;;;3.87;;
32094;SDS011;18608;53.688;10.748;2023-03-01T02:22:47;6.13;;;4.43;;
32094;SDS011;18608;53.688;10.748;2023-03-01T02:30:41;6.10;;;4.70;;
32094;SDS011;18608;53.688;10.748;2023-03-01T02:33:28;5.33;;;4.10;;
32094;SDS011;18608;53.688;10.748;2023-03-01T02:35:58;4.83;;;4.40;;
32094;SDS011;18608;53.688;10.748;2023-03-01T02:38:26;6.03;;;4.40;;
32094;SDS011;18608;53.688;10.748;2023-03-01T02:40:53;7.57;;;4.83;;
32094;SDS011;18608;53.688;10.748;2023-03-01T02:43:19;8.10;;;5.13;;
32094;SDS011;18608;53.688;10.748;2023-03-01T02:45:48;8.77;;;6.27;;
32094;SDS011;18608;53.688;10.748;2023-03-01T02:48:15;11.70;;;5.73;;
32094;SDS011;18608;53.688;10.748;2023-03-01T02:50:45;12.47;;;5.23;;
32094;SDS011;18608;53.688;10.748;2023-03-01T02:53:34;7.80;;;5.33;;
32094;SDS011;18608;53.688;10.748;2023-03-01T02:56:01;8.70;;;5.47;;
32094;SDS011;18608;53.688;10.748;2023-03-01T02:58:26;7.60;;;5.80;;
32094;SDS011;18608;53.688;10.748;2023-03-01T03:00:52;7.50;;;5.57;;
32094;SDS011;18608;53.688;10.748;2023-03-01T03:03:19;10.77;;;6.53;;
32094;SDS011;18608;53.688;10.748;2023-03-01T03:05:46;7.17;;;5.73;;
32094;SDS011;18608;53.688;10.748;2023-03-01T03:08:13;6.63;;;5.47;;
32094;SDS011;18608;53.688;10.748;2023-03-01T03:10:41;8.33;;;6.00;;
32094;SDS011;18608;53.688;10.748;2023-03-01T03:13:12;7.93;;;6.57;;
32094;SDS011;18608;53.688;10.748;2023-03-01T03:15:39;9.50;;;6.20;;
32094;SDS011;18608;53.688;10.748;2023-03-01T03:18:08;6.90;;;5.97;;
32094;SDS011;18608;53.688;10.748;2023-03-01T03:20:35;7.60;;;5.77;;
32094;SDS011;18608;53.688;10.748;2023-03-01T03:23:02;7.20;;;6.20;;
32094;SDS011;18608;53.688;10.748;2023-03-01T03:25:28;9.43;;;6.40;;
32094;SDS011;18608;53.688;10.748;2023-03-01T03:27:55;6.97;;;6.13;;
32094;SDS011;18608;53.688;10.748;2023-03-01T03:30:28;8.80;;;6.43;;
32094;SDS011;18608;53.688;10.748;2023-03-01T03:32:55;8.80;;;6.17;;
32094;SDS011;18608;53.688;10.748;2023-03-01T03:35:23;12.23;;;7.13;;
32094;SDS011;18608;53.688;10.748;2023-03-01T03:38:00;7.90;;;6.37;;
32094;SDS011;18608;53.688;10.748;2023-03-01T03:40:38;11.93;;;6.23;;
32094;SDS011;18608;53.688;10.748;2023-03-01T03:43:06;16.10;;;6.77;;
32094;SDS011;18608;53.688;10.748;2023-03-01T03:45:34;11.30;;;8.10;;
32094;SDS011;18608;53.688;10.748;2023-03-01T03:48:00;9.60;;;6.97;;
32094;SDS011;18608;53.688;10.748;2023-03-01T03:50:27;11.60;;;7.60;;
32094;SDS011;18608;53.688;10.748;2023-03-01T03:52:52;9.80;;;7.40;;
32094;SDS011;18608;53.688;10.748;2023-03-01T03:55:18;11.93;;;7.27;;
32094;SDS011;18608;53.688;10.748;2023-03-01T03:57:44;14.50;;;6.53;;
32094;SDS011;18608;53.688;10.748;2023-03-01T04:00:16;8.30;;;6.23;;
32094;SDS011;18608;53.688;10.748;2023-03-01T04:02:44;8.10;;;5.80;;
32094;SDS011;18608;53.688;10.748;2023-03-01T04:05:12;13.10;;;6.50;;
32094;SDS011;18608;53.688;10.748;2023-03-01T04:07:39;10.37;;;6.27;;
32094;SDS011;18608;53.688;10.748;2023-03-01T04:10:06;13.30;;;7.80;;
32094;SDS011;18608;53.688;10.748;2023-03-01T04:12:36;9.73;;;6.53;;
32094;SDS011;18608;53.688;10.748;2023-03-01T04:15:03;14.53;;;8.10;;
32094;SDS011;18608;53.688;10.748;2023-03-01T04:17:45;8.60;;;6.63;;
32094;SDS011;18608;53.688;10.748;2023-03-01T04:20:13;15.67;;;6.40;;
32094;SDS011;18608;53.688;10.748;2023-03-01T04:22:42;16.83;;;6.33;;
32094;SDS011;18608;53.688;10.748;2023-03-01T04:25:11;12.00;;;6.53;;
32094;SDS011;18608;53.688;10.748;2023-03-01T04:27:39;9.70;;;7.37;;
32094;SDS011;18608;53.688;10.748;2023-03-01T04:30:05;12.37;;;7.17;;
32094;SDS011;18608;53.688;10.748;2023-03-01T04:32:32;13.30;;;7.93;;
32094;SDS011;18608;53.688;10.748;2023-03-01T04:34:58;13.20;;;6.90;;
32094;SDS011;18608;53.688;10.748;2023-03-01T04:37:24;12.40;;;8.07;;
32094;SDS011;18608;53.688;10.748;2023-03-01T04:39:50;14.00;;;7.37;;
32094;SDS011;18608;53.688;10.748;2023-03-01T04:42:16;10.73;;;6.90;;
32094;SDS011;18608;53.688;10.748;2023-03-01T04:44:42;12.73;;;7.10;;
32094;SDS011;18608;53.688;10.748;2023-03-01T04:47:08;14.10;;;7.83;;
32094;SDS011;18608;53.688;10.748;2023-03-01T04:49:34;13.67;;;8.40;;
32094;SDS011;18608;53.688;10.748;2023-03-01T04:51:59;21.33;;;8.57;;
32094;SDS011;18608;53.688;10.748;2023-03-01T04:54:27;22.23;;;9.70;;
32094;SDS011;18608;53.688;10.748;2023-03-01T04:56:54;14.67;;;9.07;;
32094;SDS011;18608;53.688;10.748;2023-03-01T04:59:20;14.40;;;8.57;;
32094;SDS011;18608;53.688;10.748;2023-03-01T05:01:49;14.60;;;8.97;;
32094;SDS011;18608;53.688;10.748;2023-03-01T05:04:15;22.03;;;8.57;;
32094;SDS011;18608;53.688;10.748;2023-03-01T05:06:40;14.80;;;8.73;;
32094;SDS011;18608;53.688;10.748;2023-03-01T05:09:06;17.83;;;10.80;;
32094;SDS011;18608;53.688;10.748;2023-03-01T05:11:32;14.83;;;9.90;;
32094;SDS011;18608;53.688;10.748;2023-03-01T05:14:01;15.03;;;8.33;;
32094;SDS011;18608;53.688;10.748;2023-03-01T05:16:29;14.93;;;9.13;;
32094;SDS011;18608;53.688;10.748;2023-03-01T05:18:55;20.90;;;11.07;;
32094;SDS011;18608;53.688;10.748;2023-03-01T05:21:21;25.37;;;11.03;;
32094;SDS011;18608;53.688;10.748;2023-03-01T05:23:47;21.57;;;10.73;;
32094;SDS011;18608;53.688;10.748;2023-03-01T05:26:13;24.93;;;11.77;;
32094;SDS011;18608;53.688;10.748;2023-03-01T05:28:39;34.63;;;12.70;;
32094;SDS011;18608;53.688;10.748;2023-03-01T05:31:05;24.20;;;12.20;;
32094;SDS011;18608;53.688;10.748;2023-03-01T05:33:37;17.10;;;10.57;;
32094;SDS011;18608;53.688;10.748;2023-03-01T05:36:05;25.37;;;13.40;;
32094;SDS011;18608;53.688;10.748;2023-03-01T05:38:32;22.73;;;12.37;;
32094;SDS011;18608;53.688;10.748;2023-03-01T05:40:58;25.80;;;14.60;;
32094;SDS011;18608;53.688;10.748;2023-03-01T05:43:24;23.33;;;13.30;;
32094;SDS011;18608;53.688;10.748;2023-03-01T05:45:50;26.87;;;14.60;;
32094;SDS011;18608;53.688;10.748;2023-03-01T05:48:16;27.63;;;14.00;;
32094;SDS011;18608;53.688;10.748;2023-03-01T05:50:44;27.20;;;14.00;;
32094;SDS011;18608;53.688;10.748;2023-03-01T05:53:12;24.37;;;13.30;;
32094;SDS011;18608;53.688;10.748;2023-03-01T05:55:40;23.60;;;13.27;;
32094;SDS011;18608;53.688;10.748;2023-03-01T05:58:08;23.10;;;13.30;;
32094;SDS011;18608;53.688;10.748;2023-03-01T06:00:39;24.90;;;13.60;;
32094;SDS011;18608;53.688;10.748;2023-03-01T06:03:05;24.27;;;14.00;;
32094;SDS011;18608;53.688;10.748;2023-03-01T06:05:30;30.13;;;13.50;;
32094;SDS011;18608;53.688;10.748;2023-03-01T06:08:00;33.63;;;14.93;;
32094;SDS011;18608;53.688;10.748;2023-03-01T06:10:26;24.53;;;14.40;;
32094;SDS011;18608;53.688;10.748;2023-03-01T06:12:52;27.50;;;13.90;;
32094;SDS011;18608;53.688;10.748;2023-03-01T06:15:18;22.67;;;14.73;;
32094;SDS011;18608;53.688;10.748;2023-03-01T06:17:45;28.23;;;14.63;;
32094;SDS011;18608;53.688;10.748;2023-03-01T06:20:12;24.53;;;12.37;;
32094;SDS011;18608;53.688;10.748;2023-03-01T06:22:43;23.33;;;12.80;;
32094;SDS011;18608;53.688;10.748;2023-03-01T06:25:09;47.80;;;14.10;;
32094;SDS011;18608;53.688;10.748;2023-03-01T06:27:37;26.80;;;14.20;;
32094;SDS011;18608;53.688;10.748;2023-03-01T06:30:03;25.73;;;12.93;;
32094;SDS011;18608;53.688;10.748;2023-03-01T06:32:29;27.20;;;12.50;;
32094;SDS011;18608;53.688;10.748;2023-03-01T06:34:55;25.93;;;14.60;;
32094;SDS011;18608;53.688;10.748;2023-03-01T06:37:20;26.57;;;13.20;;
32094;SDS011;18608;53.688;10.748;2023-03-01T06:39:46;25.00;;;12.10;;
32094;SDS011;18608;53.688;10.748;2023-03-01T06:42:11;30.40;;;14.30;;
32094;SDS011;18608;53.688;10.748;2023-03-01T06:44:37;25.40;;;14.30;;
32094;SDS011;18608;53.688;10.748;2023-03-01T06:47:03;26.03;;;13.50;;
32094;SDS011;18608;53.688;10.748;2023-03-01T06:49:29;29.50;;;14.30;;
32094;SDS011;18608;53.688;10.748;2023-03-01T06:51:55;28.13;;;14.93;;
32094;SDS011;18608;53.688;10.748;2023-03-01T06:54:21;32.20;;;15.07;;
32094;SDS011;18608;53.688;10.748;2023-03-01T06:56:47;33.83;;;15.03;;
32094;SDS011;18608;53.688;10.748;2023-03-01T06:59:13;20.00;;;13.40;;
32094;SDS011;18608;53.688;10.748;2023-03-01T07:01:39;28.47;;;13.57;;
32094;SDS011;18608;53.688;10.748;2023-03-01T07:04:05;28.00;;;12.87;;
32094;SDS011;18608;53.688;10.748;2023-03-01T07:06:30;29.87;;;16.17;;
32094;SDS011;18608;53.688;10.748;2023-03-01T07:08:56;28.77;;;13.47;;
32094;SDS011;18608;53.688;10.748;2023-03-01T07:11:22;26.70;;;14.37;;
32094;SDS011;18608;53.688;10.748;2023-03-01T07:13:48;24.97;;;14.10;;
32094;SDS011;18608;53.688;10.748;2023-03-01T07:16:14;26.33;;;14.83;;
32094;SDS011;18608;53.688;10.748;2023-03-01T07:18:39;29.03;;;15.53;;
32094;SDS011;18608;53.688;10.748;2023-03-01T07:21:09;24.83;;;14.10;;
32094;SDS011;18608;53.688;10.748;2023-03-01T07:23:37;24.50;;;14.93;;
32094;SDS011;18608;53.688;10.748;2023-03-01T07:26:03;28.43;;;14.83;;
32094;SDS011;18608;53.688;10.748;2023-03-01T07:28:28;31.70;;;14.37;;
32094;SDS011;18608;53.688;10.748;2023-03-01T07:30:55;24.47;;;14.97;;
32094;SDS011;18608;53.688;10.748;2023-03-01T07:33:25;28.37;;;15.00;;
32094;SDS011;18608;53.688;10.748;2023-03-01T07:35:55;35.30;;;16.50;;
32094;SDS011;18608;53.688;10.748;2023-03-01T07:38:25;25.67;;;14.90;;
32094;SDS011;18608;53.688;10.748;2023-03-01T07:40:51;36.13;;;15.73;;
32094;SDS011;18608;53.688;10.748;2023-03-01T07:43:17;26.60;;;13.83;;
32094;SDS011;18608;53.688;10.748;2023-03-01T07:45:43;32.17;;;15.70;;
32094;SDS011;18608;53.688;10.748;2023-03-01T07:48:09;26.17;;;14.43;;
32094;SDS011;18608;53.688;10.748;2023-03-01T07:50:34;27.70;;;14.20;;
32094;SDS011;18608;53.688;10.748;2023-03-01T07:53:00;28.13;;;15.33;;
32094;SDS011;18608;53.688;10.748;2023-03-01T07:55:25;26.33;;;15.00;;
32094;SDS011;18608;53.688;10.748;2023-03-01T07:57:51;34.63;;;15.80;;
32094;SDS011;18608;53.688;10.748;2023-03-01T08:00:17;29.93;;;16.07;;
32094;SDS011;18608;53.688;10.748;2023-03-01T08:02:42;28.00;;;14.87;;
32094;SDS011;18608;53.688;10.748;2023-03-01T08:05:09;21.63;;;13.40;;
32094;SDS011;18608;53.688;10.748;2023-03-01T08:07:35;27.73;;;15.53;;
32094;SDS011;18608;53.688;10.748;2023-03-01T08:10:00;26.27;;;14.53;;
32094;SDS011;18608;53.688;10.748;2023-03-01T08:12:26;26.43;;;14.00;;
32094;SDS011;18608;53.688;10.748;2023-03-01T08:14:53;25.17;;;14.60;;
32094;SDS011;18608;53.688;10.748;2023-03-01T08:17:18;27.07;;;14.50;;
32094;SDS011;18608;53.688;10.748;2023-03-01T08:19:44;26.30;;;13.57;;
32094;SDS011;18608;53.688;10.748;2023-03-01T08:22:10;26.77;;;15.27;;
32094;SDS011;18608;53.688;10.748;2023-03-01T08:24:35;24.30;;;13.10;;
32094;SDS011;18608;53.688;10.748;2023-03-01T08:27:01;25.70;;;15.77;;
32094;SDS011;18608;53.688;10.748;2023-03-01T08:29:27;23.57;;;14.93;;
32094;SDS011;18608;53.688;10.748;2023-03-01T08:31:55;26.77;;;15.70;;
32094;SDS011;18608;53.688;10.748;2023-03-01T08:34:20;29.90;;;15.40;;
32094;SDS011;18608;53.688;10.748;2023-03-01T08:36:46;27.33;;;14.57;;
32094;SDS011;18608;53.688;10.748;2023-03-01T08:39:13;32.20;;;15.93;;
32094;SDS011;18608;53.688;10.748;2023-03-01T08:41:40;27.90;;;13.97;;
32094;SDS011;18608;53.688;10.748;2023-03-01T08:44:06;28.63;;;14.40;;
32094;SDS011;18608;53.688;10.748;2023-03-01T08:46:33;27.93;;;16.43;;
32094;SDS011;18608;53.688;10.748;2023-03-01T08:49:04;26.17;;;13.80;;
32094;SDS011;18608;53.688;10.748;2023-03-01T08:51:33;28.63;;;15.33;;
32094;SDS011;18608;53.688;10.748;2023-03-01T08:54:02;21.73;;;14.57;;
32094;SDS011;18608;53.688;10.748;2023-03-01T08:56:32;27.27;;;14.97;;
32094;SDS011;18608;53.688;10.748;2023-03-01T08:58:58;33.60;;;15.90;;
32094;SDS011;18608;53.688;10.748;2023-03-01T09:01:24;34.17;;;15.50;;
32094;SDS011;18608;53.688;10.748;2023-03-01T09:03:50;24.77;;;14.23;;
32094;SDS011;18608;53.688;10.748;2023-03-01T09:06:16;26.63;;;14.60;;
32094;SDS011;18608;53.688;10.748;2023-03-01T09:08:43;28.00;;;15.40;;
32094;SDS011;18608;53.688;10.748;2023-03-01T09:11:10;31.93;;;17.37;;
32094;SDS011;18608;53.688;10.748;2023-03-01T09:13:37;30.30;;;15.70;;
32094;SDS011;18608;53.688;10.748;2023-03-01T09:16:04;25.73;;;14.73;;
32094;SDS011;18608;53.688;10.748;2023-03-01T09:18:31;24.63;;;15.47;;
32094;SDS011;18608;53.688;10.748;2023-03-01T09:21:07;26.00;;;15.07;;
32094;SDS011;18608;53.688;10.748;2023-03-01T09:23:35;22.40;;;13.50;;
32094;SDS011;18608;53.688;10.748;2023-03-01T09:26:03;26.90;;;15.50;;
32094;SDS011;18608;53.688;10.748;2023-03-01T09:28:34;21.90;;;13.77;;
32094;SDS011;18608;53.688;10.748;2023-03-01T09:31:03;23.87;;;14.83;;
32094;SDS011;18608;53.688;10.748;2023-03-01T09:33:30;24.47;;;14.43;;
32094;SDS011;18608;53.688;10.748;2023-03-01T09:35:59;23.30;;;15.23;;
32094;SDS011;18608;53.688;10.748;2023-03-01T09:38:26;24.97;;;13.20;;
32094;SDS011;18608;53.688;10.748;2023-03-01T09:40:52;24.10;;;13.93;;
32094;SDS011;18608;53.688;10.748;2023-03-01T09:43:21;18.77;;;12.00;;
32094;SDS011;18608;53.688;10.748;2023-03-01T09:45:55;28.47;;;13.70;;
32094;SDS011;18608;53.688;10.748;2023-03-01T09:48:26;27.67;;;12.87;;
32094;SDS011;18608;53.688;10.748;2023-03-01T09:50:55;22.73;;;13.00;;
32094;SDS011;18608;53.688;10.748;2023-03-01T09:53:22;26.07;;;14.97;;
32094;SDS011;18608;53.688;10.748;2023-03-01T09:56:00;26.67;;;14.13;;
32094;SDS011;18608;53.688;10.748;2023-03-01T09:58:41;19.97;;;11.70;;
32094;SDS011;18608;53.688;10.748;2023-03-01T10:04:11;20.60;;;12.40;;
32094;SDS011;18608;53.688;10.748;2023-03-01T10:07:36;21.83;;;11.80;;
32094;SDS011;18608;53.688;10.748;2023-03-01T10:09:36;20.70;;;12.80;;
32094;SDS011;18608;53.688;10.748;2023-03-01T10:12:04;23.10;;;12.67;;
32094;SDS011;18608;53.688;10.748;2023-03-01T10:14:36;19.40;;;12.43;;
32094;SDS011;18608;53.688;10.748;2023-03-01T10:19:50;21.40;;;12.33;;
32094;SDS011;18608;53.688;10.748;2023-03-01T10:22:18;20.37;;;12.10;;
32094;SDS011;18608;53.688;10.748;2023-03-01T10:24:47;17.60;;;9.80;;
32094;SDS011;18608;53.688;10.748;2023-03-01T10:29:49;18.33;;;11.67;;
32094;SDS011;18608;53.688;10.748;2023-03-01T10:32:41;22.17;;;13.00;;
32094;SDS011;18608;53.688;10.748;2023-03-01T10:41:05;27.93;;;13.50;;
32094;SDS011;18608;53.688;10.748;2023-03-01T10:46:30;22.60;;;12.53;;
32094;SDS011;18608;53.688;10.748;2023-03-01T10:51:36;46.80;;;22.60;;
32094;SDS011;18608;53.688;10.748;2023-03-01T10:54:05;51.47;;;23.63;;
32094;SDS011;18608;53.688;10.748;2023-03-01T10:56:47;27.57;;;16.23;;
32094;SDS011;18608;53.688;10.748;2023-03-01T10:59:20;19.00;;;11.70;;
32094;SDS011;18608;53.688;10.748;2023-03-01T11:02:02;16.33;;;7.63;;
32094;SDS011;18608;53.688;10.748;2023-03-01T11:04:28;12.27;;;8.33;;
32094;SDS011;18608;53.688;10.748;2023-03-01T11:06:59;18.00;;;9.97;;
32094;SDS011;18608;53.688;10.748;2023-03-01T11:09:30;10.50;;;6.03;;
32094;SDS011;18608;53.688;10.748;2023-03-01T11:12:03;9.80;;;6.40;;
32094;SDS011;18608;53.688;10.748;2023-03-01T11:14:36;16.60;;;9.97;;
32094;SDS011;18608;53.688;10.748;2023-03-01T11:17:12;21.43;;;10.90;;
32094;SDS011;18608;53.688;10.748;2023-03-01T11:19:59;14.37;;;8.50;;
32094;SDS011;18608;53.688;10.748;2023-03-01T11:22:44;9.70;;;6.40;;
32094;SDS011;18608;53.688;10.748;2023-03-01T11:25:17;8.83;;;6.60;;
32094;SDS011;18608;53.688;10.748;2023-03-01T11:27:45;12.93;;;7.47;;
32094;SDS011;18608;53.688;10.748;2023-03-01T11:30:22;10.63;;;7.20;;
32094;SDS011;18608;53.688;10.748;2023-03-01T11:33:04;14.17;;;7.47;;
32094;SDS011;18608;53.688;10.748;2023-03-01T11:35:44;15.17;;;8.63;;
32094;SDS011;18608;53.688;10.748;2023-03-01T11:38:30;11.83;;;7.67;;
32094;SDS011;18608;53.688;10.748;2023-03-01T11:41:13;13.73;;;8.67;;
32094;SDS011;18608;53.688;10.748;2023-03-01T11:51:25;11.93;;;5.07;;
32094;SDS011;18608;53.688;10.748;2023-03-01T11:56:52;7.50;;;4.90;;
32094;SDS011;18608;53.688;10.748;2023-03-01T12:10:23;1.50;;;1.40;;
32094;SDS011;18608;53.688;10.748;2023-03-01T12:36:58;5.70;;;4.13;;
32094;SDS011;18608;53.688;10.748;2023-03-01T12:48:34;15.97;;;3.67;;
32094;SDS011;18608;53.688;10.748;2023-03-01T12:51:08;7.07;;;4.13;;
32094;SDS011;18608;53.688;10.748;2023-03-01T12:53:47;5.67;;;3.50;;
32094;SDS011;18608;53.688;10.748;2023-03-01T12:56:15;7.73;;;4.60;;
32094;SDS011;18608;53.688;10.748;2023-03-01T13:01:36;6.40;;;4.80;;
32094;SDS011;18608;53.688;10.748;2023-03-01T13:07:09;4.83;;;4.33;;
32094;SDS011;18608;53.688;10.748;2023-03-01T13:09:46;4.43;;;3.57;;
32094;SDS011;18608;53.688;10.748;2023-03-01T13:17:50;7.30;;;4.80;;
32094;SDS011;18608;53.688;10.748;2023-03-01T13:23:00;12.03;;;3.73;;
32094;SDS011;18608;53.688;10.748;2023-03-01T13:33:56;5.97;;;4.37;;
32094;SDS011;18608;53.688;10.748;2023-03-01T13:46:52;5.80;;;4.50;;
32094;SDS011;18608;53.688;10.748;2023-03-01T13:49:21;5.20;;;4.10;;
32094;SDS011;18608;53.688;10.748;2023-03-01T13:51:49;6.30;;;4.67;;
32094;SDS011;18608;53.688;10.748;2023-03-01T13:54:18;8.40;;;5.60;;
32094;SDS011;18608;53.688;10.748;2023-03-01T13:56:58;8.93;;;5.17;;
32094;SDS011;18608;53.688;10.748;2023-03-01T13:59:25;5.03;;;4.53;;
32094;SDS011;18608;53.688;10.748;2023-03-01T14:01:58;5.63;;;4.30;;
32094;SDS011;18608;53.688;10.748;2023-03-01T14:04:26;10.00;;;5.73;;
32094;SDS011;18608;53.688;10.748;2023-03-01T14:07:11;9.37;;;5.60;;
32094;SDS011;18608;53.688;10.748;2023-03-01T14:09:40;10.10;;;6.37;;
32094;SDS011;18608;53.688;10.748;2023-03-01T14:12:18;11.63;;;6.10;;
32094;SDS011;18608;53.688;10.748;2023-03-01T14:22:48;5.80;;;5.20;;
32094;SDS011;18608;53.688;10.748;2023-03-01T14:25:31;9.30;;;6.37;;
32094;SDS011;18608;53.688;10.748;2023-03-01T14:30:49;6.30;;;4.60;;
32094;SDS011;18608;53.688;10.748;2023-03-01T14:36:09;8.70;;;6.17;;
32094;SDS011;18608;53.688;10.748;2023-03-01T14:38:41;11.10;;;6.67;;
32094;SDS011;18608;53.688;10.748;2023-03-01T14:41:12;11.57;;;6.17;;
32094;SDS011;18608;53.688;10.748;2023-03-01T14:43:44;9.00;;;6.43;;
32094;SDS011;18608;53.688;10.748;2023-03-01T14:46:19;8.10;;;6.10;;
32094;SDS011;18608;53.688;10.748;2023-03-01T14:48:51;8.97;;;6.47;;
32094;SDS011;18608;53.688;10.748;2023-03-01T14:51:21;8.90;;;6.67;;
32094;SDS011;18608;53.688;10.748;2023-03-01T14:53:47;9.23;;;7.10;;
32094;SDS011;18608;53.688;10.748;2023-03-01T14:56:13;9.77;;;7.90;;
32094;SDS011;18608;53.688;10.748;2023-03-01T14:58:42;11.83;;;6.80;;
32094;SDS011;18608;53.688;10.748;2023-03-01T15:01:10;12.23;;;5.93;;
32094;SDS011;18608;53.688;10.748;2023-03-01T15:03:41;12.03;;;6.33;;
32094;SDS011;18608;53.688;10.748;2023-03-01T15:06:09;10.00;;;7.23;;
32094;SDS011;18608;53.688;10.748;2023-03-01T15:08:41;15.47;;;7.90;;
32094;SDS011;18608;53.688;10.748;2023-03-01T15:13:38;12.47;;;8.77;;
32094;SDS011;18608;53.688;10.748;2023-03-01T15:18:31;18.03;;;11.40;;
32094;SDS011;18608;53.688;10.748;2023-03-01T15:21:20;19.23;;;12.00;;
32094;SDS011;18608;53.688;10.748;2023-03-01T15:23:49;30.70;;;15.77;;
32094;SDS011;18608;53.688;10.748;2023-03-01T15:28:50;19.57;;;11.90;;
32094;SDS011;18608;53.688;10.748;2023-03-01T15:31:25;23.83;;;13.00;;
32094;SDS011;18608;53.688;10.748;2023-03-01T15:36:47;25.60;;;14.90;;
32094;SDS011;18608;53.688;10.748;2023-03-01T15:42:02;21.17;;;12.63;;
32094;SDS011;18608;53.688;10.748;2023-03-01T15:44:37;31.00;;;16.70;;
32094;SDS011;18608;53.688;10.748;2023-03-01T15:49:51;27.80;;;14.47;;
32094;SDS011;18608;53.688;10.748;2023-03-01T15:52:27;20.20;;;9.77;;
32094;SDS011;18608;53.688;10.748;2023-03-01T15:54:56;30.33;;;16.33;;
32094;SDS011;18608;53.688;10.748;2023-03-01T15:57:26;22.53;;;14.77;;
32094;SDS011;18608;53.688;10.748;2023-03-01T15:59:52;24.93;;;14.77;;
32094;SDS011;18608;53.688;10.748;2023-03-01T16:02:18;23.43;;;14.90;;
32094;SDS011;18608;53.688;10.748;2023-03-01T16:04:46;31.23;;;15.27;;
32094;SDS011;18608;53.688;10.748;2023-03-01T16:07:12;24.83;;;14.30;;
32094;SDS011;18608;53.688;10.748;2023-03-01T16:09:37;29.20;;;17.13;;
32094;SDS011;18608;53.688;10.748;2023-03-01T16:12:03;28.43;;;16.80;;
32094;SDS011;18608;53.688;10.748;2023-03-01T16:14:29;22.20;;;14.57;;
32094;SDS011;18608;53.688;10.748;2023-03-01T16:16:54;24.57;;;14.50;;
32094;SDS011;18608;53.688;10.748;2023-03-01T16:19:20;41.83;;;17.97;;
32094;SDS011;18608;53.688;10.748;2023-03-01T16:21:46;34.77;;;18.40;;
32094;SDS011;18608;53.688;10.748;2023-03-01T16:24:13;40.67;;;17.13;;
32094;SDS011;18608;53.688;10.748;2023-03-01T16:26:39;42.93;;;20.33;;
32094;SDS011;18608;53.688;10.748;2023-03-01T16:29:05;33.13;;;18.80;;
32094;SDS011;18608;53.688;10.748;2023-03-01T16:31:30;25.90;;;14.77;;
32094;SDS011;18608;53.688;10.748;2023-03-01T16:33:57;38.43;;;19.80;;
32094;SDS011;18608;53.688;10.748;2023-03-01T16:36:25;41.30;;;19.10;;
32094;SDS011;18608;53.688;10.748;2023-03-01T16:38:53;18.23;;;10.20;;
32094;SDS011;18608;53.688;10.748;2023-03-01T16:41:21;35.53;;;18.17;;
32094;SDS011;18608;53.688;10.748;2023-03-01T16:43:47;92.30;;;21.00;;
32094;SDS011;18608;53.688;10.748;2023-03-01T16:46:15;35.60;;;16.50;;
32094;SDS011;18608;53.688;10.748;2023-03-01T16:48:42;37.73;;;17.77;;
32094;SDS011;18608;53.688;10.748;2023-03-01T16:51:08;43.27;;;20.57;;
32094;SDS011;18608;53.688;10.748;2023-03-01T16:53:34;49.60;;;20.27;;
32094;SDS011;18608;53.688;10.748;2023-03-01T16:56:01;51.40;;;19.80;;